Anderson, South Dakota
Current Conditions -  °F | °C
As of 2:53 AM on Thursday 23 Oct 2014 (Local Time) from KHEI Reporting Station
Clear Clear  
Wind Chill: 40°   Ceiling: Unl
Heat Index: 40°   Visibility: 10mi
Dew Point: 27°   Wind: 0mph
Humidity: 60%   Direction: NA
Pressure: 29.95"   Gusts: NA
Location:  45.2919°N, 102.298°W
Report Text: KHEI 230853Z AUTO 00000KT 10SM CLR 04/M03 A2995 RMK AO2 SLP143 T00441028 56008
Loading
Personal Weather Stations






























Interactive Weather Map
Tropical Storm Tracking
New forecast layout! Learn more

10-Day Weather Forecast

Advertisements
Track Severe Weather on mobile